createdAt,value
2023-01-21T00:00:01.540Z,897
2023-01-21T00:01:01.326Z,1017
2023-01-21T00:02:01.322Z,1060
2023-01-21T00:03:01.409Z,995
2023-01-21T00:05:01.522Z,765
2023-01-21T00:06:01.332Z,840
2023-01-21T00:07:01.206Z,838
2023-01-21T00:08:02.721Z,712
2023-01-21T00:10:01.563Z,933
2023-01-21T00:11:01.402Z,599
2023-01-21T00:12:01.327Z,629
2023-01-21T00:13:01.226Z,618
2023-01-21T00:15:01.556Z,836
2023-01-21T00:16:01.347Z,920
2023-01-21T00:17:01.298Z,930
2023-01-21T00:18:01.313Z,895
2023-01-21T00:20:01.553Z,895
2023-01-21T00:21:01.324Z,872
2023-01-21T00:22:01.298Z,872
2023-01-21T00:23:01.208Z,923
2023-01-21T00:25:01.491Z,848
2023-01-21T00:26:01.339Z,804
2023-01-21T00:27:01.326Z,761
2023-01-21T00:28:01.307Z,733
2023-01-21T00:30:01.516Z,761
2023-01-21T00:31:01.396Z,641
2023-01-21T00:32:01.386Z,649
2023-01-21T00:33:01.196Z,641
2023-01-21T00:35:01.515Z,620
2023-01-21T00:36:01.326Z,678
2023-01-21T00:37:01.335Z,730
2023-01-21T00:38:01.335Z,704
2023-01-21T00:40:01.507Z,810
2023-01-21T00:41:01.374Z,830
2023-01-21T00:42:01.250Z,806
2023-01-21T00:43:01.349Z,761
2023-01-21T00:45:01.575Z,827
2023-01-21T00:46:01.370Z,793
2023-01-21T00:47:01.338Z,783
2023-01-21T00:48:01.332Z,808
2023-01-21T00:50:01.520Z,733
2023-01-21T00:51:01.406Z,627
2023-01-21T00:52:01.307Z,652
2023-01-21T00:53:01.300Z,612
2023-01-21T00:55:01.551Z,754
2023-01-21T00:56:01.359Z,780
2023-01-21T00:57:01.303Z,783
2023-01-21T00:58:01.320Z,791
2023-01-21T01:00:01.585Z,780
2023-01-21T01:01:01.216Z,694
2023-01-21T01:02:01.229Z,708
2023-01-21T01:03:01.277Z,726
2023-01-21T01:05:01.553Z,706
2023-01-21T01:06:01.319Z,526
2023-01-21T01:07:01.346Z,533
2023-01-21T01:08:01.314Z,915
2023-01-21T01:10:01.515Z,537
2023-01-21T01:11:01.373Z,569
2023-01-21T01:12:01.242Z,770
2023-01-21T01:13:01.349Z,770
2023-01-21T01:15:01.549Z,772
2023-01-21T01:16:01.315Z,848
2023-01-21T01:17:01.255Z,865
2023-01-21T01:18:01.349Z,744
2023-01-21T01:20:01.615Z,819
2023-01-21T01:21:01.339Z,774
2023-01-21T01:22:01.321Z,765
2023-01-21T01:23:01.325Z,742
2023-01-21T01:25:01.554Z,672
2023-01-21T01:26:01.334Z,806
2023-01-21T01:27:01.387Z,815
2023-01-21T01:28:01.331Z,836
2023-01-21T01:30:01.551Z,629
2023-01-21T01:31:01.597Z,589
2023-01-21T01:32:01.369Z,564
2023-01-21T01:33:01.471Z,580
2023-01-21T01:35:01.571Z,580
2023-01-21T01:36:01.319Z,728
2023-01-21T01:37:01.352Z,704
2023-01-21T01:38:01.325Z,686
2023-01-21T01:40:01.539Z,660
2023-01-21T01:41:01.379Z,746
2023-01-21T01:42:01.351Z,768
2023-01-21T01:43:01.353Z,694
2023-01-21T01:45:01.567Z,759
2023-01-21T01:46:01.386Z,746
2023-01-21T01:47:01.324Z,575
2023-01-21T01:48:01.358Z,735
2023-01-21T01:50:01.562Z,575
2023-01-21T01:51:01.417Z,581
2023-01-21T01:52:01.349Z,575
2023-01-21T01:53:01.329Z,761
2023-01-21T01:55:01.550Z,594
2023-01-21T01:56:01.340Z,872
2023-01-21T01:57:01.450Z,761
2023-01-21T01:58:01.355Z,865
2023-01-21T02:00:01.561Z,704
2023-01-21T02:01:01.343Z,768
2023-01-21T02:02:01.519Z,761
2023-01-21T02:03:01.291Z,737
2023-01-21T02:05:01.554Z,791
2023-01-21T02:06:01.329Z,692
2023-01-21T02:07:01.347Z,717
2023-01-21T02:08:01.352Z,719
2023-01-21T02:10:01.537Z,742
2023-01-21T02:11:01.351Z,815
2023-01-21T02:12:01.350Z,700
2023-01-21T02:13:01.367Z,624
2023-01-21T02:15:01.549Z,765
2023-01-21T02:16:01.440Z,851
2023-01-21T02:17:01.361Z,834
2023-01-21T02:18:01.332Z,868
2023-01-21T02:20:01.576Z,672
2023-01-21T02:21:01.467Z,549
2023-01-21T02:22:01.452Z,543
2023-01-21T02:23:01.355Z,542
2023-01-21T02:25:01.564Z,666
2023-01-21T02:26:01.328Z,905
2023-01-21T02:27:01.338Z,439
2023-01-21T02:28:01.337Z,683
2023-01-21T02:30:01.521Z,517
2023-01-21T02:31:01.396Z,456
2023-01-21T02:32:01.341Z,500
2023-01-21T02:33:01.340Z,483
2023-01-21T02:35:01.526Z,470
2023-01-21T02:36:01.374Z,548
2023-01-21T02:37:01.340Z,553
2023-01-21T02:38:01.242Z,737
2023-01-21T02:40:01.532Z,754
2023-01-21T02:41:01.368Z,704
2023-01-21T02:42:01.373Z,686
2023-01-21T02:43:01.357Z,650
2023-01-21T02:45:01.534Z,665
2023-01-21T02:46:01.476Z,656
2023-01-21T02:47:01.494Z,498
2023-01-21T02:48:01.363Z,480
2023-01-21T02:50:01.555Z,464
2023-01-21T02:51:01.277Z,591
2023-01-21T02:52:01.466Z,774
2023-01-21T02:53:01.279Z,783
2023-01-21T02:55:01.545Z,800
2023-01-21T02:56:01.383Z,623
2023-01-21T02:57:01.350Z,526
2023-01-21T02:58:01.343Z,624
2023-01-21T03:00:01.550Z,614
2023-01-21T03:01:01.443Z,660
2023-01-21T03:02:01.439Z,666
2023-01-21T03:03:01.344Z,629
2023-01-21T03:05:01.568Z,551
2023-01-21T03:06:01.365Z,553
2023-01-21T03:07:01.524Z,561
2023-01-21T03:08:01.252Z,555
2023-01-21T03:10:01.538Z,536
2023-01-21T03:11:01.363Z,527
2023-01-21T03:12:01.386Z,508
2023-01-21T03:13:01.287Z,580
2023-01-21T03:15:01.584Z,728
2023-01-21T03:16:01.402Z,659
2023-01-21T03:17:01.354Z,641
2023-01-21T03:18:01.255Z,659
2023-01-21T03:20:01.578Z,668
2023-01-21T03:21:01.349Z,679
2023-01-21T03:22:01.268Z,699
2023-01-21T03:23:01.380Z,650
2023-01-21T03:25:01.559Z,640
2023-01-21T03:26:01.381Z,666
2023-01-21T03:27:01.356Z,638
2023-01-21T03:28:01.346Z,629
2023-01-21T03:30:01.604Z,465
2023-01-21T03:31:01.409Z,502
2023-01-21T03:32:01.389Z,444
2023-01-21T03:33:01.298Z,517
2023-01-21T03:35:01.574Z,530
2023-01-21T03:36:01.394Z,497
2023-01-21T03:37:01.360Z,574
2023-01-21T03:38:01.293Z,652
2023-01-21T03:40:01.563Z,626
2023-01-21T03:41:01.377Z,615
2023-01-21T03:42:01.262Z,627
2023-01-21T03:43:01.385Z,452
2023-01-21T03:45:01.567Z,454
2023-01-21T03:46:01.418Z,476
2023-01-21T03:47:01.363Z,400
2023-01-21T03:48:01.384Z,450
2023-01-21T03:50:01.585Z,493
2023-01-21T03:51:01.392Z,487
2023-01-21T03:52:01.373Z,624
2023-01-21T03:53:01.296Z,638
2023-01-21T03:55:01.565Z,627
2023-01-21T03:56:01.294Z,652
2023-01-21T03:57:01.314Z,629
2023-01-21T03:58:01.399Z,643
2023-01-21T04:00:01.583Z,637
2023-01-21T04:01:01.439Z,612
2023-01-21T04:02:01.391Z,618
2023-01-21T04:03:01.396Z,631
2023-01-21T04:05:01.592Z,633
2023-01-21T04:06:01.366Z,452
2023-01-21T04:07:01.513Z,441
2023-01-21T04:08:01.525Z,407
2023-01-21T04:10:01.574Z,417
2023-01-21T04:11:01.379Z,694
2023-01-21T04:12:01.387Z,686
2023-01-21T04:13:01.302Z,679
2023-01-21T04:15:03.672Z,653
2023-01-21T04:16:01.401Z,730
2023-01-21T04:17:01.304Z,591
2023-01-21T04:18:01.381Z,675
2023-01-21T04:20:01.568Z,712
2023-01-21T04:21:01.385Z,688
2023-01-21T04:22:01.287Z,631
2023-01-21T04:23:01.296Z,520
2023-01-21T04:25:01.566Z,520
2023-01-21T04:26:01.296Z,527
2023-01-21T04:27:01.413Z,520
2023-01-21T04:28:01.390Z,660
2023-01-21T04:30:01.574Z,533
2023-01-21T04:31:01.409Z,589
2023-01-21T04:32:01.418Z,524
2023-01-21T04:33:01.421Z,624
2023-01-21T04:35:01.599Z,580
2023-01-21T04:36:01.398Z,618
2023-01-21T04:37:01.279Z,612
2023-01-21T04:38:01.404Z,480
2023-01-21T04:40:01.612Z,483
2023-01-21T04:41:01.399Z,480
2023-01-21T04:42:01.673Z,485
2023-01-21T04:43:01.379Z,480
2023-01-21T04:45:01.616Z,480
2023-01-21T04:46:01.503Z,536
2023-01-21T04:47:01.289Z,605
2023-01-21T04:48:01.407Z,668
2023-01-21T04:50:01.585Z,634
2023-01-21T04:51:01.415Z,599
2023-01-21T04:52:01.290Z,612
2023-01-21T04:53:01.386Z,586
2023-01-21T04:55:01.586Z,614
2023-01-21T04:56:01.417Z,591
2023-01-21T04:57:01.413Z,618
2023-01-21T04:58:01.426Z,633
2023-01-21T05:00:01.617Z,627
2023-01-21T05:01:01.369Z,589
2023-01-21T05:02:01.412Z,536
2023-01-21T05:03:01.415Z,536
2023-01-21T05:05:01.592Z,536
2023-01-21T05:06:01.419Z,487
2023-01-21T05:07:01.423Z,581
2023-01-21T05:08:01.387Z,607
2023-01-21T05:10:01.619Z,530
2023-01-21T05:11:01.420Z,572
2023-01-21T05:12:01.407Z,574
2023-01-21T05:13:01.392Z,542
2023-01-21T05:15:01.613Z,485
2023-01-21T05:16:01.619Z,560
2023-01-21T05:17:01.624Z,526
2023-01-21T05:18:01.522Z,526
2023-01-21T05:20:01.619Z,459
2023-01-21T05:21:01.547Z,480
2023-01-21T05:22:01.428Z,480
2023-01-21T05:23:01.417Z,480
2023-01-21T05:25:01.637Z,480
2023-01-21T05:26:01.417Z,473
2023-01-21T05:27:01.302Z,473
2023-01-21T05:28:01.408Z,527
2023-01-21T05:30:01.613Z,566
2023-01-21T05:31:01.495Z,530
2023-01-21T05:32:01.474Z,524
2023-01-21T05:33:01.430Z,533
2023-01-21T05:35:01.590Z,445
2023-01-21T05:36:01.409Z,536
2023-01-21T05:37:01.432Z,533
2023-01-21T05:38:01.394Z,542
2023-01-21T05:40:01.618Z,586
2023-01-21T05:41:01.410Z,546
2023-01-21T05:42:01.420Z,413
2023-01-21T05:43:01.316Z,413
2023-01-21T05:45:01.650Z,413
2023-01-21T05:46:01.456Z,487
2023-01-21T05:47:01.428Z,487
2023-01-21T05:48:01.339Z,515
2023-01-21T05:50:01.599Z,527
2023-01-21T05:51:01.402Z,536
2023-01-21T05:52:01.430Z,556
2023-01-21T05:53:01.394Z,534
2023-01-21T05:55:02.765Z,572
2023-01-21T05:56:01.315Z,597
2023-01-21T05:57:01.442Z,627
2023-01-21T05:58:01.436Z,627
2023-01-21T06:00:01.626Z,529
2023-01-21T06:01:01.434Z,451
2023-01-21T06:02:01.500Z,451
2023-01-21T06:03:01.448Z,451
2023-01-21T06:05:01.643Z,451
2023-01-21T06:06:01.435Z,497
2023-01-21T06:07:01.444Z,569
2023-01-21T06:08:01.476Z,555
2023-01-21T06:10:01.618Z,565
2023-01-21T06:11:01.440Z,491
2023-01-21T06:12:01.445Z,502
2023-01-21T06:13:01.418Z,502
2023-01-21T06:15:01.631Z,505
2023-01-21T06:16:01.475Z,505
2023-01-21T06:17:01.412Z,424
2023-01-21T06:18:01.437Z,424
2023-01-21T06:20:01.631Z,424
2023-01-21T06:21:01.407Z,422
2023-01-21T06:22:01.437Z,418
2023-01-21T06:23:01.425Z,418
2023-01-21T06:25:01.615Z,508
2023-01-21T06:26:01.414Z,523
2023-01-21T06:27:01.442Z,464
2023-01-21T06:28:01.487Z,514
2023-01-21T06:30:01.603Z,418
2023-01-21T06:31:01.518Z,459
2023-01-21T06:32:01.557Z,548
2023-01-21T06:33:01.434Z,459
2023-01-21T06:35:01.624Z,459
2023-01-21T06:36:01.431Z,445
2023-01-21T06:37:01.351Z,542
2023-01-21T06:38:01.431Z,549
2023-01-21T06:40:01.631Z,553
2023-01-21T06:41:01.450Z,496
2023-01-21T06:42:01.456Z,515
2023-01-21T06:43:01.450Z,486
2023-01-21T06:45:01.564Z,413
2023-01-21T06:46:01.485Z,459
2023-01-21T06:47:01.922Z,566
2023-01-21T06:48:01.445Z,617
2023-01-21T06:50:01.645Z,599
2023-01-21T06:51:01.476Z,407
2023-01-21T06:52:01.545Z,443
2023-01-21T06:53:01.424Z,400
2023-01-21T06:55:01.622Z,400
2023-01-21T06:56:01.450Z,413
2023-01-21T06:57:01.350Z,508
2023-01-21T06:58:01.448Z,533
2023-01-21T07:00:01.673Z,413
2023-01-21T07:01:01.452Z,441
2023-01-21T07:02:01.436Z,500
2023-01-21T07:03:01.411Z,441
2023-01-21T07:05:01.667Z,549
2023-01-21T07:06:01.324Z,406
2023-01-21T07:07:01.452Z,483
2023-01-21T07:08:01.430Z,406
2023-01-21T07:10:01.625Z,487
2023-01-21T07:11:01.434Z,592
2023-01-21T07:12:01.454Z,496
2023-01-21T07:13:01.457Z,572
2023-01-21T07:15:01.628Z,548
2023-01-21T07:16:01.503Z,602
2023-01-21T07:17:01.469Z,640
2023-01-21T07:18:01.460Z,539
2023-01-21T07:20:01.648Z,612
2023-01-21T07:21:01.332Z,487
2023-01-21T07:22:01.454Z,406
2023-01-21T07:23:01.478Z,406
2023-01-21T07:25:01.632Z,492
2023-01-21T07:26:01.426Z,418
2023-01-21T07:27:01.432Z,423
2023-01-21T07:28:01.432Z,508
2023-01-21T07:30:01.634Z,400
2023-01-21T07:31:01.593Z,531
2023-01-21T07:32:01.457Z,506
2023-01-21T07:33:01.455Z,400
2023-01-21T07:35:01.655Z,400
2023-01-21T07:36:01.458Z,545
2023-01-21T07:37:01.575Z,496
2023-01-21T07:38:01.355Z,443
2023-01-21T07:40:01.657Z,527
2023-01-21T07:41:01.366Z,614
2023-01-21T07:42:01.375Z,505
2023-01-21T07:43:01.460Z,505
2023-01-21T07:45:01.667Z,505
2023-01-21T07:46:01.478Z,614
2023-01-21T07:47:01.444Z,617
2023-01-21T07:48:01.439Z,452
2023-01-21T07:50:01.661Z,446
2023-01-21T07:51:01.462Z,498
2023-01-21T07:52:01.454Z,514
2023-01-21T07:53:01.451Z,502
2023-01-21T07:55:01.722Z,549
2023-01-21T07:57:30.321Z,400
2023-01-21T07:58:30.165Z,457
